createdAt,value
2019-03-29T00:02:23.681Z,99.90
2019-03-29T00:04:53.593Z,99.90
2019-03-29T00:07:23.547Z,99.90
2019-03-29T00:09:54.740Z,99.90
2019-03-29T00:12:24.703Z,99.90
2019-03-29T00:14:54.625Z,99.90
2019-03-29T00:17:24.527Z,99.90
2019-03-29T00:19:54.483Z,99.90
2019-03-29T00:22:24.330Z,99.90
2019-03-29T00:24:54.242Z,99.90
2019-03-29T00:27:24.137Z,99.90
2019-03-29T00:29:54.086Z,99.90
2019-03-29T00:32:24.044Z,99.90
2019-03-29T00:34:53.902Z,99.90
2019-03-29T00:37:23.817Z,99.90
2019-03-29T00:39:53.708Z,99.90
2019-03-29T00:42:23.660Z,99.90
2019-03-29T00:44:53.600Z,99.90
2019-03-29T00:47:23.547Z,99.90
2019-03-29T00:49:53.405Z,99.90
2019-03-29T00:52:23.381Z,99.90
2019-03-29T00:54:54.133Z,99.90
2019-03-29T00:57:24.050Z,99.90
2019-03-29T00:59:53.951Z,99.90
2019-03-29T01:02:23.774Z,99.90
2019-03-29T01:04:54.291Z,99.90
2019-03-29T01:07:24.947Z,99.90
2019-03-29T01:09:54.957Z,99.90
2019-03-29T01:12:24.838Z,99.90
2019-03-29T01:14:54.722Z,99.90
2019-03-29T01:17:24.712Z,99.90
2019-03-29T01:19:55.925Z,99.90
2019-03-29T01:22:25.920Z,99.90
2019-03-29T01:24:55.905Z,99.90
2019-03-29T01:27:25.778Z,99.90
2019-03-29T01:29:56.244Z,99.90
2019-03-29T01:32:26.711Z,99.90
2019-03-29T01:34:56.648Z,99.90
2019-03-29T01:37:27.735Z,99.90
2019-03-29T01:39:57.605Z,99.90
2019-03-29T01:42:27.504Z,99.90
2019-03-29T01:44:57.478Z,99.90
2019-03-29T01:47:27.397Z,99.90
2019-03-29T01:49:57.272Z,99.90
2019-03-29T01:52:27.201Z,99.90
2019-03-29T01:54:57.329Z,99.90
2019-03-29T01:57:30.086Z,99.90
2019-03-29T01:59:59.949Z,99.90
2019-03-29T02:02:29.875Z,99.90
2019-03-29T02:05:00.229Z,99.90
2019-03-29T02:07:30.876Z,99.90
2019-03-29T02:10:00.764Z,99.90
2019-03-29T02:12:30.711Z,99.90
2019-03-29T02:15:00.711Z,99.90
2019-03-29T02:17:30.635Z,99.90
2019-03-29T02:20:00.501Z,99.90
2019-03-29T02:22:30.400Z,99.90
2019-03-29T02:25:00.412Z,99.90
2019-03-29T02:27:30.351Z,99.90
2019-03-29T02:30:00.513Z,99.90
2019-03-29T02:32:30.705Z,99.90
2019-03-29T02:35:00.550Z,99.90
2019-03-29T02:37:30.446Z,99.90
2019-03-29T02:40:00.693Z,99.90
2019-03-29T02:42:30.718Z,99.90
2019-03-29T02:45:00.670Z,99.90
2019-03-29T02:47:30.583Z,99.90
2019-03-29T02:50:00.550Z,99.90
2019-03-29T02:52:30.442Z,99.90
2019-03-29T02:55:00.731Z,99.90
2019-03-29T02:57:30.667Z,99.90
2019-03-29T03:00:00.670Z,99.90
2019-03-29T03:02:30.561Z,99.90
2019-03-29T03:05:00.582Z,99.90
2019-03-29T03:07:30.539Z,99.90
2019-03-29T03:10:00.598Z,99.90
2019-03-29T03:12:30.514Z,99.90
2019-03-29T03:15:00.455Z,99.90
2019-03-29T03:17:30.400Z,99.90
2019-03-29T03:20:00.487Z,99.90
2019-03-29T03:22:30.457Z,99.90
2019-03-29T03:25:00.481Z,99.90
2019-03-29T03:27:30.390Z,99.90
2019-03-29T03:30:00.480Z,99.90
2019-03-29T03:32:30.685Z,99.90
2019-03-29T03:35:00.873Z,99.90
2019-03-29T03:37:30.872Z,99.90
2019-03-29T03:40:00.840Z,99.90
2019-03-29T03:42:30.795Z,99.90
2019-03-29T03:45:00.807Z,99.90
2019-03-29T03:47:30.994Z,99.90
2019-03-29T03:50:01.675Z,99.90
2019-03-29T03:52:31.911Z,99.90
2019-03-29T03:55:01.890Z,99.90
2019-03-29T03:57:32.614Z,99.90
2019-03-29T04:00:03.060Z,99.90
2019-03-29T04:02:32.957Z,99.90
2019-03-29T04:05:02.808Z,99.90
2019-03-29T04:07:32.742Z,99.90
2019-03-29T04:10:02.656Z,99.90
2019-03-29T04:12:32.550Z,99.90
2019-03-29T04:15:02.416Z,99.90
2019-03-29T04:17:32.357Z,99.90
2019-03-29T04:20:02.347Z,99.90
2019-03-29T04:22:32.198Z,99.90
2019-03-29T04:25:02.133Z,99.90
2019-03-29T04:27:32.014Z,99.90
2019-03-29T04:30:02.013Z,99.90
2019-03-29T04:32:31.928Z,99.90
2019-03-29T04:35:04.165Z,99.90
2019-03-29T04:37:34.094Z,99.90
2019-03-29T04:40:07.761Z,99.90
2019-03-29T04:42:35.684Z,99.90
2019-03-29T04:45:05.869Z,99.90
2019-03-29T04:47:35.768Z,99.90
2019-03-29T04:50:06.061Z,99.90
2019-03-29T04:52:36.035Z,99.90
2019-03-29T04:55:05.976Z,99.90
2019-03-29T04:57:35.882Z,99.90
2019-03-29T05:00:08.524Z,99.90
2019-03-29T05:02:38.457Z,99.90
2019-03-29T05:05:08.464Z,99.90
2019-03-29T05:07:38.449Z,99.90
2019-03-29T05:10:20.236Z,99.90
2019-03-29T05:12:40.135Z,99.90
2019-03-29T05:15:10.232Z,99.90
2019-03-29T05:17:40.244Z,99.90
2019-03-29T05:20:10.161Z,99.90
2019-03-29T05:22:40.002Z,99.90
2019-03-29T05:25:09.986Z,99.90
2019-03-29T05:27:39.887Z,99.90
2019-03-29T05:30:09.908Z,99.90
2019-03-29T05:32:39.881Z,99.90
2019-03-29T05:35:09.894Z,99.90
2019-03-29T05:37:39.966Z,99.90
2019-03-29T05:40:09.870Z,99.90
2019-03-29T05:42:39.733Z,99.90
2019-03-29T05:45:10.763Z,99.90
2019-03-29T05:47:40.684Z,99.90
2019-03-29T05:50:10.642Z,99.90
2019-03-29T05:52:40.743Z,99.90
2019-03-29T05:55:10.665Z,99.90
2019-03-29T05:57:40.571Z,99.90
2019-03-29T06:00:12.851Z,99.90
2019-03-29T06:02:42.836Z,99.90
2019-03-29T06:05:12.772Z,99.90
2019-03-29T06:07:42.744Z,99.90
2019-03-29T06:10:12.756Z,99.90
2019-03-29T06:12:42.706Z,99.90
2019-03-29T06:15:12.783Z,99.90
2019-03-29T06:17:48.528Z,99.90
2019-03-29T06:20:14.625Z,99.90
2019-03-29T06:22:44.576Z,99.90
2019-03-29T06:25:14.629Z,99.90
2019-03-29T06:27:46.113Z,99.90
2019-03-29T06:30:19.878Z,99.90
2019-03-29T06:32:49.836Z,99.90
2019-03-29T06:35:19.685Z,99.90
2019-03-29T06:37:49.832Z,99.90
2019-03-29T06:40:25.748Z,99.90
2019-03-29T06:42:55.617Z,99.90
2019-03-29T06:45:25.559Z,99.90
2019-03-29T06:47:55.519Z,99.90
2019-03-29T06:50:25.433Z,99.90
2019-03-29T06:52:55.350Z,99.90
2019-03-29T06:55:25.214Z,99.90
2019-03-29T06:57:55.188Z,99.90
2019-03-29T07:00:25.163Z,99.90
2019-03-29T07:02:55.158Z,99.90
2019-03-29T07:05:25.110Z,99.90
2019-03-29T07:07:55.050Z,99.90
2019-03-29T07:10:24.944Z,99.90
2019-03-29T07:12:56.441Z,99.90
2019-03-29T07:15:29.107Z,99.90
2019-03-29T07:17:58.952Z,99.90
2019-03-29T07:20:28.955Z,99.90
2019-03-29T07:22:58.929Z,99.90
2019-03-29T07:25:28.925Z,99.90
2019-03-29T07:27:58.911Z,99.90
2019-03-29T07:30:28.888Z,99.90
2019-03-29T07:32:58.831Z,99.90
2019-03-29T07:35:28.743Z,99.90
2019-03-29T07:37:58.576Z,99.90
2019-03-29T07:40:28.489Z,99.90
2019-03-29T07:42:58.543Z,99.90
2019-03-29T07:45:28.664Z,99.90
2019-03-29T07:47:58.577Z,99.90
2019-03-29T07:50:28.578Z,99.90
2019-03-29T07:52:58.514Z,99.90
2019-03-29T07:55:28.444Z,99.90
2019-03-29T07:57:58.587Z,99.90
2019-03-29T08:00:28.565Z,99.90
2019-03-29T08:02:58.427Z,99.90
2019-03-29T08:05:28.435Z,99.90
2019-03-29T08:07:59.231Z,99.90
2019-03-29T08:10:31.503Z,99.90
2019-03-29T08:13:01.337Z,98.60
2019-03-29T08:15:31.340Z,95.20
2019-03-29T08:18:01.870Z,96.40
2019-03-29T08:20:43.597Z,94.20
2019-03-29T08:23:03.703Z,89.70
2019-03-29T08:25:33.650Z,82.10
2019-03-29T08:28:03.700Z,83.80
2019-03-29T08:30:33.619Z,81.10
2019-03-29T08:33:03.555Z,77.40
2019-03-29T08:35:33.528Z,74.30
2019-03-29T08:38:06.155Z,72.30
2019-03-29T08:40:35.078Z,75.00
2019-03-29T08:43:05.092Z,73.10
2019-03-29T08:45:35.034Z,72.40
2019-03-29T08:48:06.747Z,70.10
2019-03-29T08:50:36.576Z,67.50
2019-03-29T08:53:06.531Z,67.70
2019-03-29T08:55:45.685Z,70.90
2019-03-29T08:58:08.211Z,74.50
2019-03-29T09:00:38.181Z,78.40
2019-03-29T09:03:08.323Z,82.10
2019-03-29T09:05:39.322Z,84.70
2019-03-29T09:08:11.421Z,87.30
2019-03-29T09:10:41.338Z,88.40
2019-03-29T09:13:11.276Z,89.50
2019-03-29T09:15:41.227Z,89.60
2019-03-29T09:18:11.190Z,89.40
2019-03-29T09:20:41.803Z,90.00
2019-03-29T09:23:11.745Z,90.00
2019-03-29T09:25:41.743Z,90.40
2019-03-29T09:28:11.661Z,89.50
2019-03-29T09:30:41.518Z,89.90
2019-03-29T09:33:11.460Z,90.60
2019-03-29T09:35:42.951Z,87.60
2019-03-29T09:38:13.118Z,87.90
2019-03-29T09:40:47.985Z,89.10
2019-03-29T09:43:14.748Z,89.60
2019-03-29T09:45:44.713Z,89.30
2019-03-29T09:48:14.714Z,88.80
2019-03-29T09:50:48.790Z,87.10
2019-03-29T09:53:16.396Z,87.70
2019-03-29T09:55:46.373Z,87.60
2019-03-29T09:58:16.917Z,86.40
2019-03-29T10:00:46.976Z,85.70
2019-03-29T10:03:16.845Z,86.20
2019-03-29T10:05:46.739Z,87.70
2019-03-29T10:08:16.926Z,86.70
2019-03-29T10:10:47.153Z,90.00
2019-03-29T10:13:17.165Z,85.90
2019-03-29T10:15:47.116Z,86.60
2019-03-29T10:18:17.166Z,83.30
2019-03-29T10:20:47.033Z,83.90
2019-03-29T10:23:16.902Z,84.00
2019-03-29T10:25:46.779Z,84.60
2019-03-29T10:28:16.669Z,82.50
2019-03-29T10:30:47.153Z,82.90
2019-03-29T10:33:17.178Z,82.90
2019-03-29T10:35:52.003Z,82.90
2019-03-29T10:38:18.804Z,80.90
2019-03-29T10:40:48.681Z,80.20
2019-03-29T10:43:18.611Z,80.70
2019-03-29T10:45:48.612Z,76.60
2019-03-29T10:48:18.535Z,72.20
2019-03-29T10:50:48.514Z,71.30
2019-03-29T10:53:18.548Z,70.50
2019-03-29T10:55:48.513Z,70.00
2019-03-29T10:58:18.590Z,70.80
2019-03-29T11:00:48.565Z,72.60
2019-03-29T11:03:18.480Z,70.90
2019-03-29T11:05:48.448Z,72.30
2019-03-29T11:08:18.376Z,72.30
2019-03-29T11:10:48.553Z,72.50
2019-03-29T11:13:18.421Z,75.00
2019-03-29T11:15:48.345Z,76.80
2019-03-29T11:18:18.297Z,76.20
2019-03-29T11:20:48.290Z,74.50
2019-03-29T11:23:18.223Z,73.10
2019-03-29T11:25:48.769Z,70.60
2019-03-29T11:28:18.958Z,75.20
2019-03-29T11:30:48.935Z,71.40
2019-03-29T11:33:19.264Z,72.80
2019-03-29T11:35:49.209Z,70.50
2019-03-29T11:38:19.426Z,71.40
2019-03-29T11:40:49.398Z,73.70
2019-03-29T11:43:26.794Z,74.80
2019-03-29T11:45:50.888Z,75.20
2019-03-29T11:48:20.784Z,73.60
2019-03-29T11:50:50.737Z,70.70
2019-03-29T11:53:20.681Z,70.80
2019-03-29T11:55:50.676Z,71.80
2019-03-29T11:58:20.681Z,71.10
2019-03-29T12:00:50.556Z,71.90
2019-03-29T12:03:20.493Z,71.30
2019-03-29T12:05:50.459Z,68.90
2019-03-29T12:08:20.269Z,67.50
2019-03-29T12:10:51.323Z,65.60
2019-03-29T12:13:21.262Z,64.90
2019-03-29T12:15:51.310Z,63.50
2019-03-29T12:18:21.307Z,64.30
2019-03-29T12:20:54.244Z,62.50
2019-03-29T12:23:22.920Z,62.80
2019-03-29T12:25:52.878Z,65.40
2019-03-29T12:28:22.750Z,67.70
2019-03-29T12:30:52.613Z,70.00
2019-03-29T12:33:22.536Z,67.60
2019-03-29T12:35:52.508Z,67.20
2019-03-29T12:38:22.422Z,66.00
2019-03-29T12:40:52.405Z,68.50
2019-03-29T12:43:22.785Z,68.10
2019-03-29T12:45:52.784Z,70.10
2019-03-29T12:48:22.778Z,68.40
2019-03-29T12:50:52.731Z,69.50
2019-03-29T12:53:22.643Z,68.90
2019-03-29T12:55:52.619Z,69.60
2019-03-29T12:58:22.612Z,70.00
2019-03-29T13:00:52.821Z,72.70
2019-03-29T13:03:22.823Z,67.70
2019-03-29T13:05:52.897Z,68.00
2019-03-29T13:08:22.922Z,67.70
2019-03-29T13:10:53.455Z,67.40
2019-03-29T13:13:23.800Z,69.90
2019-03-29T13:15:55.024Z,65.20
2019-03-29T13:18:25.194Z,66.40
2019-03-29T13:20:55.329Z,67.00
2019-03-29T13:23:25.362Z,67.20
2019-03-29T13:25:55.346Z,67.10
2019-03-29T13:28:25.339Z,67.70
2019-03-29T13:30:55.356Z,67.00
2019-03-29T13:33:25.656Z,66.00
2019-03-29T13:35:55.702Z,67.70
2019-03-29T13:38:26.116Z,67.40
2019-03-29T13:40:56.096Z,66.80
2019-03-29T13:43:26.090Z,67.50
2019-03-29T13:45:56.003Z,67.30
2019-03-29T13:48:26.044Z,67.30
2019-03-29T13:50:59.221Z,66.50
2019-03-29T13:53:27.693Z,66.00
2019-03-29T13:55:57.681Z,65.20
2019-03-29T13:58:27.753Z,65.60
2019-03-29T14:00:58.669Z,65.60
2019-03-29T14:03:28.789Z,64.30
2019-03-29T14:05:58.797Z,64.50
2019-03-29T14:08:28.846Z,65.00
2019-03-29T14:10:58.778Z,64.60
2019-03-29T14:13:28.734Z,64.70
2019-03-29T14:15:58.681Z,65.80
2019-03-29T14:18:28.694Z,65.00
2019-03-29T14:20:58.554Z,64.80
2019-03-29T14:23:28.539Z,67.40
2019-03-29T14:25:58.503Z,65.90
2019-03-29T14:28:28.513Z,65.20
2019-03-29T14:30:58.502Z,65.80
2019-03-29T14:33:28.443Z,68.40
2019-03-29T14:35:58.511Z,68.40
2019-03-29T14:38:28.476Z,65.70
2019-03-29T14:40:58.448Z,66.00
2019-03-29T14:43:28.444Z,65.30
2019-03-29T14:45:58.508Z,66.30
2019-03-29T14:48:28.455Z,67.30
2019-03-29T14:50:58.495Z,67.90
2019-03-29T14:53:28.474Z,64.60
2019-03-29T14:55:58.763Z,65.30
2019-03-29T14:58:28.941Z,64.20
2019-03-29T15:00:59.420Z,65.80
2019-03-29T15:03:29.640Z,63.50
2019-03-29T15:06:01.858Z,62.20
2019-03-29T15:08:32.425Z,61.90
2019-03-29T15:11:02.896Z,63.00
2019-03-29T15:13:33.397Z,64.30
2019-03-29T15:16:03.708Z,65.00
2019-03-29T15:18:34.011Z,64.80
2019-03-29T15:21:04.566Z,65.50
2019-03-29T15:23:34.595Z,64.80
2019-03-29T15:26:04.785Z,64.30
2019-03-29T15:28:37.347Z,63.30
2019-03-29T15:31:06.469Z,62.40
2019-03-29T15:33:36.433Z,62.80
2019-03-29T15:36:06.367Z,63.00
2019-03-29T15:38:36.352Z,63.70
2019-03-29T15:41:06.301Z,65.20
2019-03-29T15:43:36.284Z,66.80
2019-03-29T15:46:06.226Z,64.70
2019-03-29T15:48:36.136Z,65.80
2019-03-29T15:51:06.196Z,65.60
2019-03-29T15:53:36.182Z,65.50
2019-03-29T15:56:06.241Z,65.40
2019-03-29T15:58:36.288Z,65.80
2019-03-29T16:01:06.244Z,65.40
2019-03-29T16:03:36.215Z,66.30
2019-03-29T16:06:06.157Z,65.70
2019-03-29T16:08:36.120Z,66.60
2019-03-29T16:11:09.044Z,67.90
2019-03-29T16:13:37.740Z,67.70
2019-03-29T16:16:07.748Z,66.70
2019-03-29T16:18:37.738Z,66.80
2019-03-29T16:21:07.690Z,66.50
2019-03-29T16:23:37.704Z,67.70
2019-03-29T16:26:07.662Z,67.00
2019-03-29T16:28:37.644Z,66.80
2019-03-29T16:31:07.626Z,67.50
2019-03-29T16:33:37.492Z,67.20
2019-03-29T16:36:07.385Z,67.20
2019-03-29T16:38:37.330Z,67.70
2019-03-29T16:41:07.366Z,68.10
2019-03-29T16:43:37.387Z,68.10
2019-03-29T16:46:07.341Z,67.90
2019-03-29T16:48:37.286Z,67.40
2019-03-29T16:51:07.306Z,67.40
2019-03-29T16:53:39.729Z,67.40
2019-03-29T16:56:11.915Z,67.60
2019-03-29T16:58:40.488Z,67.70
2019-03-29T17:01:10.350Z,68.10
2019-03-29T17:03:40.383Z,68.00
2019-03-29T17:06:10.336Z,68.40
2019-03-29T17:08:40.369Z,68.50
2019-03-29T17:11:10.305Z,68.60
2019-03-29T17:13:40.380Z,69.10
2019-03-29T17:16:10.402Z,70.30
2019-03-29T17:18:40.404Z,69.50
2019-03-29T17:21:10.382Z,69.90
2019-03-29T17:23:40.416Z,70.40
2019-03-29T17:26:10.306Z,70.90
2019-03-29T17:28:40.297Z,70.90
2019-03-29T17:31:11.158Z,71.20
2019-03-29T17:33:41.217Z,71.00
2019-03-29T17:36:11.164Z,71.50
2019-03-29T17:38:41.178Z,71.90
2019-03-29T17:41:11.271Z,72.80
2019-03-29T17:43:41.218Z,73.00
2019-03-29T17:46:16.588Z,73.60
2019-03-29T17:48:43.653Z,74.20
2019-03-29T17:51:13.664Z,75.10
2019-03-29T17:53:43.680Z,76.20
2019-03-29T17:56:15.473Z,76.60
2019-03-29T17:58:45.463Z,76.80
2019-03-29T18:01:15.337Z,77.20
2019-03-29T18:03:45.283Z,77.70
2019-03-29T18:06:15.341Z,78.50
2019-03-29T18:08:45.356Z,79.30
2019-03-29T18:11:15.292Z,79.80
2019-03-29T18:13:45.381Z,80.00
2019-03-29T18:16:29.605Z,80.30
2019-03-29T18:18:47.157Z,80.70
2019-03-29T18:21:17.188Z,81.10
2019-03-29T18:23:47.266Z,81.20
2019-03-29T18:26:17.166Z,81.60
2019-03-29T18:28:47.258Z,82.20
2019-03-29T18:31:17.477Z,83.10
2019-03-29T18:33:47.511Z,83.80
2019-03-29T18:36:17.421Z,83.90
2019-03-29T18:38:49.109Z,83.80
2019-03-29T18:41:19.214Z,84.40
2019-03-29T18:43:49.185Z,84.10
2019-03-29T18:46:19.174Z,83.80
2019-03-29T18:48:49.156Z,83.90
2019-03-29T18:51:19.214Z,84.10
2019-03-29T18:53:49.221Z,84.10
2019-03-29T18:56:19.443Z,84.90
2019-03-29T18:58:49.663Z,85.40
2019-03-29T19:01:19.570Z,86.00
2019-03-29T19:03:49.440Z,85.90
2019-03-29T19:06:19.544Z,86.00
2019-03-29T19:08:49.593Z,86.10
2019-03-29T19:11:19.521Z,86.10
2019-03-29T19:13:49.665Z,86.40
2019-03-29T19:16:19.578Z,86.90
2019-03-29T19:18:49.572Z,88.00
2019-03-29T19:21:19.565Z,89.90
2019-03-29T19:23:49.584Z,90.70
2019-03-29T19:26:19.473Z,90.90
2019-03-29T19:28:49.469Z,91.40
2019-03-29T19:31:19.570Z,92.00
2019-03-29T19:33:49.571Z,92.30
2019-03-29T19:36:19.784Z,92.80
2019-03-29T19:38:49.830Z,92.70
2019-03-29T19:41:20.010Z,93.10
2019-03-29T19:43:50.006Z,94.00
2019-03-29T19:46:20.010Z,95.10
2019-03-29T19:48:50.019Z,95.50
2019-03-29T19:51:20.226Z,95.50
2019-03-29T19:53:50.280Z,95.20
2019-03-29T19:56:20.471Z,95.50
2019-03-29T19:58:50.542Z,95.30
2019-03-29T20:01:20.642Z,95.30
2019-03-29T20:03:51.139Z,95.90
2019-03-29T20:06:21.327Z,97.80
2019-03-29T20:08:51.382Z,98.90
2019-03-29T20:11:21.685Z,99.90
2019-03-29T20:13:51.686Z,99.90
2019-03-29T20:16:21.798Z,99.90
2019-03-29T20:18:51.789Z,99.90
2019-03-29T20:21:21.759Z,99.90
2019-03-29T20:23:51.830Z,99.90
2019-03-29T20:26:22.049Z,99.90
2019-03-29T20:28:52.027Z,99.90
2019-03-29T20:31:22.026Z,99.90
2019-03-29T20:33:52.046Z,99.90
2019-03-29T20:36:23.144Z,99.90
2019-03-29T20:38:53.233Z,99.90
2019-03-29T20:41:23.271Z,99.90
2019-03-29T20:43:53.265Z,99.90
2019-03-29T20:46:23.364Z,99.90
2019-03-29T20:48:53.653Z,99.90
2019-03-29T20:51:23.567Z,99.90
2019-03-29T20:53:53.786Z,99.90
2019-03-29T20:56:23.806Z,99.90
2019-03-29T20:58:53.716Z,99.90
2019-03-29T21:01:23.685Z,99.90
2019-03-29T21:03:53.640Z,99.90
2019-03-29T21:06:23.627Z,99.90
2019-03-29T21:08:53.820Z,99.90
2019-03-29T21:11:23.855Z,99.90
2019-03-29T21:13:53.808Z,99.90
2019-03-29T21:16:23.815Z,99.90
2019-03-29T21:18:53.858Z,99.90
2019-03-29T21:21:23.832Z,99.90
2019-03-29T21:23:53.930Z,99.90
2019-03-29T21:26:23.930Z,99.90
2019-03-29T21:28:53.796Z,99.90
2019-03-29T21:31:23.747Z,99.90
2019-03-29T21:33:53.727Z,99.90
2019-03-29T21:36:23.726Z,99.90
2019-03-29T21:38:53.807Z,99.90
2019-03-29T21:41:23.800Z,99.90
2019-03-29T21:43:53.908Z,99.90
2019-03-29T21:46:23.821Z,99.90
2019-03-29T21:48:53.812Z,99.90
2019-03-29T21:51:23.771Z,99.90
2019-03-29T21:53:53.758Z,99.90
2019-03-29T21:56:23.708Z,99.90
2019-03-29T21:58:53.664Z,99.90
2019-03-29T22:01:23.632Z,99.90
2019-03-29T22:03:53.463Z,99.90
2019-03-29T22:06:23.401Z,99.90
2019-03-29T22:08:53.367Z,99.90
2019-03-29T22:11:23.350Z,99.90
2019-03-29T22:13:53.324Z,99.90
2019-03-29T22:16:23.395Z,99.90
2019-03-29T22:18:53.287Z,99.90
2019-03-29T22:21:23.196Z,99.90
2019-03-29T22:23:53.138Z,99.90
2019-03-29T22:26:23.113Z,99.90
2019-03-29T22:28:53.160Z,99.90
2019-03-29T22:31:23.170Z,99.90
2019-03-29T22:33:53.256Z,99.90
2019-03-29T22:36:23.190Z,99.90
2019-03-29T22:38:53.158Z,99.90
2019-03-29T22:41:23.211Z,99.90
2019-03-29T22:43:53.239Z,99.90
2019-03-29T22:46:23.296Z,99.90
2019-03-29T22:48:53.676Z,99.90
2019-03-29T22:51:23.626Z,99.90
2019-03-29T22:53:53.637Z,99.90
2019-03-29T22:56:23.652Z,99.90
2019-03-29T22:58:53.597Z,99.90
2019-03-29T23:01:23.585Z,99.90
2019-03-29T23:03:53.598Z,99.90
2019-03-29T23:06:23.576Z,99.90
2019-03-29T23:08:53.529Z,99.90
2019-03-29T23:11:24.022Z,99.90
2019-03-29T23:13:53.989Z,99.90
2019-03-29T23:16:23.952Z,99.90
2019-03-29T23:19:05.936Z,99.90
2019-03-29T23:21:25.556Z,99.90
2019-03-29T23:23:55.551Z,99.90
2019-03-29T23:26:25.513Z,99.90
2019-03-29T23:28:55.539Z,99.90
2019-03-29T23:31:25.474Z,99.90
2019-03-29T23:33:55.664Z,99.90
2019-03-29T23:36:25.615Z,99.90
2019-03-29T23:38:55.494Z,99.90
2019-03-29T23:41:25.544Z,99.90
2019-03-29T23:43:55.561Z,99.90
2019-03-29T23:46:25.523Z,99.90
2019-03-29T23:48:55.427Z,99.90
2019-03-29T23:51:25.319Z,99.90
2019-03-29T23:53:55.278Z,99.90
2019-03-29T23:56:25.205Z,99.90
2019-03-29T23:58:55.173Z,99.90
